sensor_id;sensor_type;location;lat;lon;timestamp;pressure;altitude;pressure_sealevel;temperature;humidity
45050;BME280;61798;48.048;-1.928;2023-04-07T00:02:10;101154.19;;;5.76;100.00
45050;BME280;61798;48.048;-1.928;2023-04-07T00:04:34;101151.06;;;5.53;100.00
45050;BME280;61798;48.048;-1.928;2023-04-07T00:06:52;101192.59;;;5.92;100.00
45050;BME280;61798;48.048;-1.928;2023-04-07T00:09:16;101183.44;;;5.76;100.00
45050;BME280;61798;48.048;-1.928;2023-04-07T00:11:31;101171.63;;;5.89;100.00
45050;BME280;61798;48.048;-1.928;2023-04-07T00:13:51;101223.03;;;6.08;100.00
45050;BME280;61798;48.048;-1.928;2023-04-07T00:16:26;101149.59;;;5.68;100.00
45050;BME280;61798;48.048;-1.928;2023-04-07T00:18:56;101163.88;;;5.67;100.00
45050;BME280;61798;48.048;-1.928;2023-04-07T00:21:26;101208.78;;;6.09;100.00
45050;BME280;61798;48.048;-1.928;2023-04-07T00:24:28;101132.84;;;5.58;100.00
45050;BME280;61798;48.048;-1.928;2023-04-07T00:27:26;101204.50;;;5.88;100.00
45050;BME280;61798;48.048;-1.928;2023-04-07T00:29:44;101156.13;;;5.46;100.00
45050;BME280;61798;48.048;-1.928;2023-04-07T00:32:16;101186.41;;;5.63;100.00
45050;BME280;61798;48.048;-1.928;2023-04-07T00:35:06;101166.53;;;5.67;100.00
45050;BME280;61798;48.048;-1.928;2023-04-07T00:37:34;101158.16;;;5.62;100.00
45050;BME280;61798;48.048;-1.928;2023-04-07T00:39:45;101148.53;;;5.51;100.00
45050;BME280;61798;48.048;-1.928;2023-04-07T00:41:59;101147.16;;;5.47;100.00
45050;BME280;61798;48.048;-1.928;2023-04-07T00:44:12;101150.31;;;5.32;100.00
45050;BME280;61798;48.048;-1.928;2023-04-07T00:46:46;101147.53;;;5.24;100.00
45050;BME280;61798;48.048;-1.928;2023-04-07T00:48:59;101176.41;;;5.47;100.00
45050;BME280;61798;48.048;-1.928;2023-04-07T00:51:11;101126.03;;;5.17;100.00
45050;BME280;61798;48.048;-1.928;2023-04-07T00:53:20;101152.69;;;5.64;100.00
45050;BME280;61798;48.048;-1.928;2023-04-07T00:55:31;101198.31;;;5.69;100.00
45050;BME280;61798;48.048;-1.928;2023-04-07T00:57:46;101202.81;;;5.58;100.00
45050;BME280;61798;48.048;-1.928;2023-04-07T00:59:55;101148.78;;;5.20;100.00
45050;BME280;61798;48.048;-1.928;2023-04-07T01:02:16;101194.09;;;5.66;100.00
45050;BME280;61798;48.048;-1.928;2023-04-07T01:05:10;101135.28;;;5.03;100.00
45050;BME280;61798;48.048;-1.928;2023-04-07T01:07:34;101211.50;;;5.60;100.00
45050;BME280;61798;48.048;-1.928;2023-04-07T01:10:04;101210.13;;;5.46;100.00
45050;BME280;61798;48.048;-1.928;2023-04-07T01:15:03;101155.00;;;4.90;100.00
45050;BME280;61798;48.048;-1.928;2023-04-07T01:17:41;101143.66;;;4.98;100.00
45050;BME280;61798;48.048;-1.928;2023-04-07T01:20:15;101175.13;;;5.13;100.00
45050;BME280;61798;48.048;-1.928;2023-04-07T01:22:54;101127.22;;;4.74;100.00
45050;BME280;61798;48.048;-1.928;2023-04-07T01:31:58;101156.56;;;4.63;100.00
45050;BME280;61798;48.048;-1.928;2023-04-07T01:35:15;101150.72;;;4.69;100.00
45050;BME280;61798;48.048;-1.928;2023-04-07T01:38:40;101156.22;;;5.06;100.00
45050;BME280;61798;48.048;-1.928;2023-04-07T01:41:48;101170.69;;;4.93;100.00
45050;BME280;61798;48.048;-1.928;2023-04-07T01:44:37;101193.72;;;4.83;100.00
45050;BME280;61798;48.048;-1.928;2023-04-07T01:47:01;101167.63;;;4.48;100.00
45050;BME280;61798;48.048;-1.928;2023-04-07T01:49:52;101219.59;;;4.81;100.00
45050;BME280;61798;48.048;-1.928;2023-04-07T01:52:57;101126.13;;;4.47;100.00
45050;BME280;61798;48.048;-1.928;2023-04-07T01:56:10;101125.56;;;4.53;100.00
45050;BME280;61798;48.048;-1.928;2023-04-07T01:59:22;101219.66;;;5.39;100.00
45050;BME280;61798;48.048;-1.928;2023-04-07T02:02:47;101194.47;;;5.43;100.00
45050;BME280;61798;48.048;-1.928;2023-04-07T02:05:20;101127.06;;;4.66;100.00
45050;BME280;61798;48.048;-1.928;2023-04-07T02:08:06;101144.56;;;4.59;100.00
45050;BME280;61798;48.048;-1.928;2023-04-07T02:11:25;101210.06;;;5.08;100.00
45050;BME280;61798;48.048;-1.928;2023-04-07T02:14:00;101156.41;;;4.74;100.00
45050;BME280;61798;48.048;-1.928;2023-04-07T02:17:59;101151.56;;;4.60;100.00
45050;BME280;61798;48.048;-1.928;2023-04-07T02:21:03;101167.63;;;4.68;100.00
45050;BME280;61798;48.048;-1.928;2023-04-07T02:23:35;101149.03;;;4.48;100.00
45050;BME280;61798;48.048;-1.928;2023-04-07T02:25:48;101210.50;;;5.03;100.00
45050;BME280;61798;48.048;-1.928;2023-04-07T02:28:02;101162.16;;;4.80;100.00
45050;BME280;61798;48.048;-1.928;2023-04-07T02:30:33;101208.94;;;5.11;100.00
45050;BME280;61798;48.048;-1.928;2023-04-07T02:32:59;101193.03;;;5.01;100.00
45050;BME280;61798;48.048;-1.928;2023-04-07T02:35:19;101234.47;;;5.42;100.00
45050;BME280;61798;48.048;-1.928;2023-04-07T02:37:50;101197.59;;;5.18;100.00
45050;BME280;61798;48.048;-1.928;2023-04-07T02:40:14;101152.94;;;4.44;100.00
45050;BME280;61798;48.048;-1.928;2023-04-07T02:42:44;101205.47;;;4.70;100.00
45050;BME280;61798;48.048;-1.928;2023-04-07T02:45:20;101166.47;;;4.21;100.00
45050;BME280;61798;48.048;-1.928;2023-04-07T02:47:49;101221.00;;;4.75;100.00
45050;BME280;61798;48.048;-1.928;2023-04-07T02:50:11;101164.66;;;4.31;100.00
45050;BME280;61798;48.048;-1.928;2023-04-07T02:52:40;101156.59;;;4.33;100.00
45050;BME280;61798;48.048;-1.928;2023-04-07T02:55:02;101145.06;;;4.02;100.00
45050;BME280;61798;48.048;-1.928;2023-04-07T02:57:12;101171.50;;;4.24;100.00
45050;BME280;61798;48.048;-1.928;2023-04-07T02:59:27;101204.88;;;4.27;100.00
45050;BME280;61798;48.048;-1.928;2023-04-07T03:02:14;101197.94;;;4.55;100.00
45050;BME280;61798;48.048;-1.928;2023-04-07T03:04:25;101188.28;;;4.44;100.00
45050;BME280;61798;48.048;-1.928;2023-04-07T03:06:38;101225.31;;;4.86;100.00
45050;BME280;61798;48.048;-1.928;2023-04-07T03:08:59;101214.97;;;4.63;100.00
45050;BME280;61798;48.048;-1.928;2023-04-07T03:11:12;101205.16;;;4.14;100.00
45050;BME280;61798;48.048;-1.928;2023-04-07T03:13:34;101163.34;;;3.96;100.00
45050;BME280;61798;48.048;-1.928;2023-04-07T03:15:46;101165.31;;;4.04;100.00
45050;BME280;61798;48.048;-1.928;2023-04-07T03:18:16;101226.38;;;4.14;100.00
45050;BME280;61798;48.048;-1.928;2023-04-07T03:20:36;101206.50;;;4.08;100.00
45050;BME280;61798;48.048;-1.928;2023-04-07T03:22:51;101155.78;;;3.81;100.00
45050;BME280;61798;48.048;-1.928;2023-04-07T03:25:12;101159.69;;;3.87;100.00
45050;BME280;61798;48.048;-1.928;2023-04-07T03:28:07;101225.00;;;4.29;100.00
45050;BME280;61798;48.048;-1.928;2023-04-07T03:31:21;101173.78;;;3.77;100.00
45050;BME280;61798;48.048;-1.928;2023-04-07T03:33:38;101183.66;;;4.17;100.00
45050;BME280;61798;48.048;-1.928;2023-04-07T03:36:15;101199.69;;;4.15;100.00
45050;BME280;61798;48.048;-1.928;2023-04-07T03:38:29;101140.22;;;3.66;100.00
45050;BME280;61798;48.048;-1.928;2023-04-07T03:41:06;101179.72;;;4.11;100.00
45050;BME280;61798;48.048;-1.928;2023-04-07T03:43:59;101160.34;;;3.69;100.00
45050;BME280;61798;48.048;-1.928;2023-04-07T03:46:22;101191.66;;;3.85;100.00
45050;BME280;61798;48.048;-1.928;2023-04-07T03:48:33;101160.75;;;3.64;100.00
45050;BME280;61798;48.048;-1.928;2023-04-07T03:50:44;101159.28;;;3.82;100.00
45050;BME280;61798;48.048;-1.928;2023-04-07T03:53:29;101186.63;;;3.82;100.00
45050;BME280;61798;48.048;-1.928;2023-04-07T03:56:06;101157.22;;;3.54;100.00
45050;BME280;61798;48.048;-1.928;2023-04-07T03:58:26;101184.41;;;3.87;100.00
45050;BME280;61798;48.048;-1.928;2023-04-07T04:00:49;101185.25;;;3.88;100.00
45050;BME280;61798;48.048;-1.928;2023-04-07T04:03:03;101193.19;;;3.78;100.00
45050;BME280;61798;48.048;-1.928;2023-04-07T04:05:27;101229.19;;;3.80;100.00
45050;BME280;61798;48.048;-1.928;2023-04-07T04:07:43;101183.19;;;3.60;100.00
45050;BME280;61798;48.048;-1.928;2023-04-07T04:10:09;101183.00;;;3.83;100.00
45050;BME280;61798;48.048;-1.928;2023-04-07T04:12:32;101188.78;;;4.08;100.00
45050;BME280;61798;48.048;-1.928;2023-04-07T04:14:46;101204.81;;;3.97;100.00
45050;BME280;61798;48.048;-1.928;2023-04-07T04:17:02;101221.31;;;4.10;100.00
45050;BME280;61798;48.048;-1.928;2023-04-07T04:19:38;101168.41;;;3.67;100.00
45050;BME280;61798;48.048;-1.928;2023-04-07T04:22:03;101224.91;;;3.89;100.00
45050;BME280;61798;48.048;-1.928;2023-04-07T04:24:15;101156.97;;;3.57;100.00
45050;BME280;61798;48.048;-1.928;2023-04-07T04:26:38;101137.13;;;3.20;100.00
45050;BME280;61798;48.048;-1.928;2023-04-07T04:29:06;101179.75;;;3.38;100.00
45050;BME280;61798;48.048;-1.928;2023-04-07T04:32:19;101193.13;;;3.15;100.00
45050;BME280;61798;48.048;-1.928;2023-04-07T04:34:44;101237.31;;;3.36;100.00
45050;BME280;61798;48.048;-1.928;2023-04-07T04:37:58;101134.03;;;2.93;100.00
45050;BME280;61798;48.048;-1.928;2023-04-07T04:41:10;101228.31;;;3.70;100.00
45050;BME280;61798;48.048;-1.928;2023-04-07T04:44:14;101231.94;;;3.79;100.00
45050;BME280;61798;48.048;-1.928;2023-04-07T04:46:38;101195.28;;;3.53;100.00
45050;BME280;61798;48.048;-1.928;2023-04-07T04:49:04;101213.00;;;3.84;100.00
45050;BME280;61798;48.048;-1.928;2023-04-07T04:51:41;101202.13;;;3.55;100.00
45050;BME280;61798;48.048;-1.928;2023-04-07T04:54:44;101190.47;;;3.68;100.00
45050;BME280;61798;48.048;-1.928;2023-04-07T04:57:17;101162.81;;;3.29;100.00
45050;BME280;61798;48.048;-1.928;2023-04-07T04:59:58;101202.78;;;3.79;100.00
45050;BME280;61798;48.048;-1.928;2023-04-07T05:02:51;101180.44;;;3.40;100.00
45050;BME280;61798;48.048;-1.928;2023-04-07T05:05:56;101206.66;;;3.65;100.00
45050;BME280;61798;48.048;-1.928;2023-04-07T05:09:07;101174.88;;;3.43;100.00
45050;BME280;61798;48.048;-1.928;2023-04-07T05:12:14;101238.84;;;3.91;100.00
45050;BME280;61798;48.048;-1.928;2023-04-07T05:15:07;101175.03;;;3.42;100.00
45050;BME280;61798;48.048;-1.928;2023-04-07T05:22:18;101186.22;;;3.24;100.00
45050;BME280;61798;48.048;-1.928;2023-04-07T05:25:24;101163.75;;;3.18;100.00
45050;BME280;61798;48.048;-1.928;2023-04-07T05:28:03;101184.69;;;3.21;100.00
45050;BME280;61798;48.048;-1.928;2023-04-07T05:30:47;101266.22;;;3.92;100.00
45050;BME280;61798;48.048;-1.928;2023-04-07T05:33:30;101211.09;;;3.64;100.00
45050;BME280;61798;48.048;-1.928;2023-04-07T05:36:38;101254.75;;;3.91;100.00
45050;BME280;61798;48.048;-1.928;2023-04-07T05:39:55;101204.38;;;3.60;100.00
45050;BME280;61798;48.048;-1.928;2023-04-07T05:43:04;101209.84;;;3.37;100.00
45050;BME280;61798;48.048;-1.928;2023-04-07T05:50:22;101237.63;;;3.64;100.00
45050;BME280;61798;48.048;-1.928;2023-04-07T05:57:44;101200.16;;;3.47;100.00
45050;BME280;61798;48.048;-1.928;2023-04-07T06:01:30;101267.34;;;3.99;100.00
45050;BME280;61798;48.048;-1.928;2023-04-07T06:04:28;101228.78;;;3.85;100.00
45050;BME280;61798;48.048;-1.928;2023-04-07T06:07:23;101218.88;;;3.56;100.00
45050;BME280;61798;48.048;-1.928;2023-04-07T06:14:32;101258.94;;;3.94;100.00
45050;BME280;61798;48.048;-1.928;2023-04-07T06:17:28;101263.34;;;4.05;100.00
45050;BME280;61798;48.048;-1.928;2023-04-07T06:19:53;101262.22;;;4.08;100.00
45050;BME280;61798;48.048;-1.928;2023-04-07T06:22:17;101258.03;;;3.74;100.00
45050;BME280;61798;48.048;-1.928;2023-04-07T06:24:46;101278.59;;;3.82;100.00
45050;BME280;61798;48.048;-1.928;2023-04-07T06:27:33;101270.19;;;3.76;100.00
45050;BME280;61798;48.048;-1.928;2023-04-07T06:29:56;101217.28;;;3.43;100.00
45050;BME280;61798;48.048;-1.928;2023-04-07T06:32:18;101236.78;;;3.64;100.00
45050;BME280;61798;48.048;-1.928;2023-04-07T06:35:20;101225.41;;;3.83;100.00
45050;BME280;61798;48.048;-1.928;2023-04-07T06:37:54;101249.13;;;4.16;100.00
45050;BME280;61798;48.048;-1.928;2023-04-07T06:40:51;101218.47;;;3.92;100.00
45050;BME280;61798;48.048;-1.928;2023-04-07T06:43:20;101270.38;;;4.26;100.00
45050;BME280;61798;48.048;-1.928;2023-04-07T06:46:06;101206.28;;;3.79;100.00
45050;BME280;61798;48.048;-1.928;2023-04-07T06:48:40;101237.53;;;4.17;100.00
45050;BME280;61798;48.048;-1.928;2023-04-07T06:51:31;101264.97;;;4.48;100.00
45050;BME280;61798;48.048;-1.928;2023-04-07T07:04:29;101283.50;;;4.89;100.00
45050;BME280;61798;48.048;-1.928;2023-04-07T07:15:52;101220.56;;;4.90;100.00
45050;BME280;61798;48.048;-1.928;2023-04-07T07:23:26;101190.09;;;4.94;100.00
45050;BME280;61798;48.048;-1.928;2023-04-07T07:27:03;101213.16;;;5.13;100.00
45050;BME280;61798;48.048;-1.928;2023-04-07T07:29:40;101252.09;;;5.53;100.00
45050;BME280;61798;48.048;-1.928;2023-04-07T07:33:29;101185.31;;;5.17;100.00
45050;BME280;61798;48.048;-1.928;2023-04-07T07:41:18;101217.72;;;5.41;100.00
45050;BME280;61798;48.048;-1.928;2023-04-07T07:51:46;101220.75;;;5.56;100.00
45050;BME280;61798;48.048;-1.928;2023-04-07T07:55:04;101275.69;;;6.14;100.00
45050;BME280;61798;48.048;-1.928;2023-04-07T07:58:04;101242.28;;;6.30;100.00
45050;BME280;61798;48.048;-1.928;2023-04-07T08:00:53;101187.41;;;5.90;100.00
45050;BME280;61798;48.048;-1.928;2023-04-07T08:03:11;101241.91;;;6.24;100.00
45050;BME280;61798;48.048;-1.928;2023-04-07T08:05:43;101282.56;;;6.63;100.00
45050;BME280;61798;48.048;-1.928;2023-04-07T08:08:41;101264.16;;;6.52;100.00
45050;BME280;61798;48.048;-1.928;2023-04-07T08:11:59;101204.53;;;6.16;100.00
45050;BME280;61798;48.048;-1.928;2023-04-07T08:22:47;101245.94;;;6.47;100.00
45050;BME280;61798;48.048;-1.928;2023-04-07T08:26:15;101285.69;;;6.77;100.00
45050;BME280;61798;48.048;-1.928;2023-04-07T08:33:12;101249.09;;;6.79;100.00
45050;BME280;61798;48.048;-1.928;2023-04-07T08:35:57;101260.44;;;6.63;100.00
45050;BME280;61798;48.048;-1.928;2023-04-07T08:39:13;101297.72;;;6.81;100.00
45050;BME280;61798;48.048;-1.928;2023-04-07T08:42:15;101254.97;;;6.64;100.00
45050;BME280;61798;48.048;-1.928;2023-04-07T08:44:46;101293.47;;;6.89;100.00
45050;BME280;61798;48.048;-1.928;2023-04-07T08:52:05;101260.19;;;6.74;100.00
45050;BME280;61798;48.048;-1.928;2023-04-07T08:55:34;101300.31;;;7.09;100.00
45050;BME280;61798;48.048;-1.928;2023-04-07T08:58:08;101300.00;;;7.58;100.00
45050;BME280;61798;48.048;-1.928;2023-04-07T09:18:23;101292.50;;;7.80;100.00
45050;BME280;61798;48.048;-1.928;2023-04-07T09:25:48;101307.72;;;8.23;100.00
45050;BME280;61798;48.048;-1.928;2023-04-07T09:29:09;101301.78;;;8.02;100.00
45050;BME280;61798;48.048;-1.928;2023-04-07T09:48:40;101271.97;;;8.16;100.00
45050;BME280;61798;48.048;-1.928;2023-04-07T09:59:14;101286.75;;;8.53;100.00
45050;BME280;61798;48.048;-1.928;2023-04-07T10:13:41;101271.66;;;9.38;100.00
45050;BME280;61798;48.048;-1.928;2023-04-07T10:31:12;101257.16;;;9.81;100.00
45050;BME280;61798;48.048;-1.928;2023-04-07T10:33:53;101241.63;;;9.76;100.00
45050;BME280;61798;48.048;-1.928;2023-04-07T10:36:07;101253.50;;;10.22;100.00
45050;BME280;61798;48.048;-1.928;2023-04-07T10:38:16;101240.50;;;10.11;100.00
45050;BME280;61798;48.048;-1.928;2023-04-07T10:42:51;101241.09;;;10.21;100.00
45050;BME280;61798;48.048;-1.928;2023-04-07T10:44:58;101221.31;;;9.99;100.00
45050;BME280;61798;48.048;-1.928;2023-04-07T10:47:05;101181.03;;;9.83;100.00
45050;BME280;61798;48.048;-1.928;2023-04-07T10:49:12;101176.50;;;10.16;100.00
45050;BME280;61798;48.048;-1.928;2023-04-07T10:51:18;101171.25;;;9.99;100.00
45050;BME280;61798;48.048;-1.928;2023-04-07T10:53:25;101190.84;;;9.91;100.00
45050;BME280;61798;48.048;-1.928;2023-04-07T10:55:53;101200.50;;;10.09;100.00
45050;BME280;61798;48.048;-1.928;2023-04-07T10:58:27;101185.13;;;10.03;100.00
45050;BME280;61798;48.048;-1.928;2023-04-07T11:00:40;101183.06;;;10.37;100.00
45050;BME280;61798;48.048;-1.928;2023-04-07T11:02:47;101201.34;;;10.65;100.00
45050;BME280;61798;48.048;-1.928;2023-04-07T11:04:54;101175.81;;;10.46;100.00
45050;BME280;61798;48.048;-1.928;2023-04-07T11:07:02;101191.31;;;10.59;100.00
45050;BME280;61798;48.048;-1.928;2023-04-07T11:09:18;101194.59;;;10.70;100.00
45050;BME280;61798;48.048;-1.928;2023-04-07T11:11:36;101184.91;;;10.36;100.00
45050;BME280;61798;48.048;-1.928;2023-04-07T11:13:47;101193.88;;;10.76;100.00
45050;BME280;61798;48.048;-1.928;2023-04-07T11:15:55;101172.41;;;10.76;100.00
45050;BME280;61798;48.048;-1.928;2023-04-07T11:18:20;101191.00;;;11.16;100.00
45050;BME280;61798;48.048;-1.928;2023-04-07T11:20:40;101169.28;;;10.72;100.00
45050;BME280;61798;48.048;-1.928;2023-04-07T11:22:59;101162.84;;;10.97;100.00
45050;BME280;61798;48.048;-1.928;2023-04-07T11:25:20;101170.81;;;10.90;100.00
45050;BME280;61798;48.048;-1.928;2023-04-07T11:27:28;101165.84;;;11.32;100.00
45050;BME280;61798;48.048;-1.928;2023-04-07T11:29:36;101157.88;;;11.24;100.00
45050;BME280;61798;48.048;-1.928;2023-04-07T11:31:46;101151.03;;;11.37;100.00
45050;BME280;61798;48.048;-1.928;2023-04-07T11:34:03;101162.44;;;11.54;100.00
45050;BME280;61798;48.048;-1.928;2023-04-07T11:36:25;101144.19;;;11.49;100.00
45050;BME280;61798;48.048;-1.928;2023-04-07T11:38:37;101148.16;;;11.53;100.00
45050;BME280;61798;48.048;-1.928;2023-04-07T11:40:45;101139.19;;;11.16;100.00
45050;BME280;61798;48.048;-1.928;2023-04-07T11:42:55;101137.06;;;11.11;100.00
45050;BME280;61798;48.048;-1.928;2023-04-07T11:45:02;101137.78;;;10.74;100.00
45050;BME280;61798;48.048;-1.928;2023-04-07T11:47:09;101162.41;;;11.08;100.00
45050;BME280;61798;48.048;-1.928;2023-04-07T11:49:17;101132.97;;;10.85;100.00
45050;BME280;61798;48.048;-1.928;2023-04-07T11:51:24;101136.03;;;10.97;100.00
45050;BME280;61798;48.048;-1.928;2023-04-07T11:53:37;101136.88;;;11.43;100.00
45050;BME280;61798;48.048;-1.928;2023-04-07T11:55:44;101131.59;;;11.65;100.00
45050;BME280;61798;48.048;-1.928;2023-04-07T11:57:52;101132.50;;;11.72;100.00
45050;BME280;61798;48.048;-1.928;2023-04-07T12:00:13;101130.25;;;12.13;100.00
45050;BME280;61798;48.048;-1.928;2023-04-07T12:02:31;101112.56;;;12.41;100.00
45050;BME280;61798;48.048;-1.928;2023-04-07T12:04:55;101130.50;;;12.63;100.00
45050;BME280;61798;48.048;-1.928;2023-04-07T12:07:09;101124.78;;;12.22;100.00
45050;BME280;61798;48.048;-1.928;2023-04-07T12:09:30;101110.47;;;12.43;100.00
45050;BME280;61798;48.048;-1.928;2023-04-07T12:11:48;101134.00;;;12.85;100.00
45050;BME280;61798;48.048;-1.928;2023-04-07T12:13:56;101121.44;;;12.71;100.00
45050;BME280;61798;48.048;-1.928;2023-04-07T12:16:04;101103.38;;;12.35;100.00
45050;BME280;61798;48.048;-1.928;2023-04-07T12:18:14;101124.97;;;12.71;100.00
45050;BME280;61798;48.048;-1.928;2023-04-07T12:20:21;101097.78;;;12.59;100.00
45050;BME280;61798;48.048;-1.928;2023-04-07T12:22:27;101106.41;;;12.76;100.00
45050;BME280;61798;48.048;-1.928;2023-04-07T12:24:33;101096.34;;;12.56;100.00
45050;BME280;61798;48.048;-1.928;2023-04-07T12:26:39;101101.88;;;12.55;100.00
45050;BME280;61798;48.048;-1.928;2023-04-07T12:28:44;101066.75;;;12.56;100.00
45050;BME280;61798;48.048;-1.928;2023-04-07T12:30:54;101106.81;;;12.73;100.00
45050;BME280;61798;48.048;-1.928;2023-04-07T12:33:04;101083.72;;;12.57;100.00
45050;BME280;61798;48.048;-1.928;2023-04-07T12:35:10;101066.41;;;11.93;100.00
45050;BME280;61798;48.048;-1.928;2023-04-07T12:37:26;101089.59;;;12.16;100.00
45050;BME280;61798;48.048;-1.928;2023-04-07T12:39:33;101090.41;;;12.68;100.00
45050;BME280;61798;48.048;-1.928;2023-04-07T12:41:39;101059.22;;;13.09;100.00
45050;BME280;61798;48.048;-1.928;2023-04-07T12:43:47;101091.59;;;13.30;100.00
45050;BME280;61798;48.048;-1.928;2023-04-07T12:45:53;101066.09;;;12.54;100.00
45050;BME280;61798;48.048;-1.928;2023-04-07T12:48:01;101065.09;;;12.91;100.00
45050;BME280;61798;48.048;-1.928;2023-04-07T12:50:08;101050.94;;;12.75;100.00
45050;BME280;61798;48.048;-1.928;2023-04-07T12:52:15;101064.16;;;12.70;100.00
45050;BME280;61798;48.048;-1.928;2023-04-07T12:54:23;101045.41;;;12.84;100.00
45050;BME280;61798;48.048;-1.928;2023-04-07T12:56:31;101076.81;;;13.12;100.00
45050;BME280;61798;48.048;-1.928;2023-04-07T12:58:39;101072.97;;;13.35;100.00
45050;BME280;61798;48.048;-1.928;2023-04-07T13:00:48;101065.66;;;13.22;100.00
45050;BME280;61798;48.048;-1.928;2023-04-07T13:02:55;101065.56;;;13.44;100.00
45050;BME280;61798;48.048;-1.928;2023-04-07T13:05:02;101025.97;;;13.38;100.00
45050;BME280;61798;48.048;-1.928;2023-04-07T13:07:10;101036.06;;;13.22;100.00
45050;BME280;61798;48.048;-1.928;2023-04-07T13:09:19;101056.34;;;12.82;100.00
45050;BME280;61798;48.048;-1.928;2023-04-07T13:11:27;101029.38;;;13.04;100.00
45050;BME280;61798;48.048;-1.928;2023-04-07T13:13:34;101047.34;;;13.46;100.00
45050;BME280;61798;48.048;-1.928;2023-04-07T13:15:43;101048.69;;;13.71;100.00
45050;BME280;61798;48.048;-1.928;2023-04-07T13:17:50;101049.09;;;13.74;100.00
45050;BME280;61798;48.048;-1.928;2023-04-07T13:19:57;101029.81;;;13.71;100.00
45050;BME280;61798;48.048;-1.928;2023-04-07T13:22:02;101042.50;;;13.77;100.00
45050;BME280;61798;48.048;-1.928;2023-04-07T13:24:09;101047.00;;;13.63;100.00
45050;BME280;61798;48.048;-1.928;2023-04-07T13:26:15;101036.25;;;13.70;100.00
45050;BME280;61798;48.048;-1.928;2023-04-07T13:28:21;101038.53;;;13.93;100.00
45050;BME280;61798;48.048;-1.928;2023-04-07T13:30:27;101034.28;;;13.36;100.00
45050;BME280;61798;48.048;-1.928;2023-04-07T13:32:33;101016.41;;;12.79;100.00
45050;BME280;61798;48.048;-1.928;2023-04-07T13:34:39;101024.59;;;13.49;100.00
45050;BME280;61798;48.048;-1.928;2023-04-07T13:36:45;101033.59;;;14.24;100.00
45050;BME280;61798;48.048;-1.928;2023-04-07T13:38:51;101044.75;;;14.62;100.00
45050;BME280;61798;48.048;-1.928;2023-04-07T13:40:57;101018.47;;;14.23;100.00
45050;BME280;61798;48.048;-1.928;2023-04-07T13:43:03;100996.91;;;13.82;100.00
45050;BME280;61798;48.048;-1.928;2023-04-07T13:45:11;101021.38;;;14.15;100.00
45050;BME280;61798;48.048;-1.928;2023-04-07T13:47:19;101026.75;;;14.15;100.00
45050;BME280;61798;48.048;-1.928;2023-04-07T13:49:26;101013.03;;;14.64;100.00
45050;BME280;61798;48.048;-1.928;2023-04-07T13:51:32;101005.81;;;14.03;100.00
45050;BME280;61798;48.048;-1.928;2023-04-07T13:53:39;101005.19;;;14.15;100.00
45050;BME280;61798;48.048;-1.928;2023-04-07T13:55:50;100994.13;;;13.48;100.00
45050;BME280;61798;48.048;-1.928;2023-04-07T13:57:57;101005.59;;;13.64;100.00
45050;BME280;61798;48.048;-1.928;2023-04-07T14:00:04;101010.59;;;14.29;100.00
45050;BME280;61798;48.048;-1.928;2023-04-07T14:02:13;101002.69;;;14.34;100.00
45050;BME280;61798;48.048;-1.928;2023-04-07T14:04:20;101025.94;;;14.14;100.00
45050;BME280;61798;48.048;-1.928;2023-04-07T14:06:28;100969.94;;;13.62;100.00
45050;BME280;61798;48.048;-1.928;2023-04-07T14:08:36;101020.72;;;14.47;100.00
45050;BME280;61798;48.048;-1.928;2023-04-07T14:10:55;101005.41;;;14.20;100.00
45050;BME280;61798;48.048;-1.928;2023-04-07T14:13:04;101007.28;;;13.92;100.00
45050;BME280;61798;48.048;-1.928;2023-04-07T14:15:14;101018.22;;;14.52;100.00
45050;BME280;61798;48.048;-1.928;2023-04-07T14:17:26;100998.69;;;14.64;100.00
45050;BME280;61798;48.048;-1.928;2023-04-07T14:19:33;100992.50;;;14.49;100.00
45050;BME280;61798;48.048;-1.928;2023-04-07T14:21:41;100998.13;;;14.34;100.00
45050;BME280;61798;48.048;-1.928;2023-04-07T14:23:49;100966.81;;;14.40;99.97
45050;BME280;61798;48.048;-1.928;2023-04-07T14:25:58;100992.56;;;14.29;100.00
45050;BME280;61798;48.048;-1.928;2023-04-07T14:28:05;100982.13;;;13.58;98.93
45050;BME280;61798;48.048;-1.928;2023-04-07T14:30:14;100998.94;;;13.73;99.58
45050;BME280;61798;48.048;-1.928;2023-04-07T14:32:21;100996.50;;;14.13;100.00
45050;BME280;61798;48.048;-1.928;2023-04-07T14:34:29;100949.22;;;14.24;100.00
45050;BME280;61798;48.048;-1.928;2023-04-07T14:36:36;100988.50;;;14.79;100.00
45050;BME280;61798;48.048;-1.928;2023-04-07T14:38:44;100995.44;;;15.15;100.00
45050;BME280;61798;48.048;-1.928;2023-04-07T14:40:51;100979.53;;;14.99;100.00
45050;BME280;61798;48.048;-1.928;2023-04-07T14:42:58;101002.56;;;14.88;100.00
45050;BME280;61798;48.048;-1.928;2023-04-07T14:45:07;100999.81;;;14.29;100.00
45050;BME280;61798;48.048;-1.928;2023-04-07T14:47:15;100982.97;;;14.33;100.00
45050;BME280;61798;48.048;-1.928;2023-04-07T14:49:22;100998.16;;;14.07;100.00
45050;BME280;61798;48.048;-1.928;2023-04-07T14:51:30;100994.19;;;13.69;100.00
45050;BME280;61798;48.048;-1.928;2023-04-07T14:53:39;101000.56;;;13.54;100.00
45050;BME280;61798;48.048;-1.928;2023-04-07T14:55:47;100997.13;;;13.81;100.00
45050;BME280;61798;48.048;-1.928;2023-04-07T14:57:57;100977.84;;;13.77;100.00
45050;BME280;61798;48.048;-1.928;2023-04-07T15:00:05;100997.75;;;13.97;100.00
45050;BME280;61798;48.048;-1.928;2023-04-07T15:02:16;100980.28;;;14.47;100.00
45050;BME280;61798;48.048;-1.928;2023-04-07T15:04:23;101009.19;;;14.99;100.00
45050;BME280;61798;48.048;-1.928;2023-04-07T15:06:29;100996.31;;;15.08;100.00
45050;BME280;61798;48.048;-1.928;2023-04-07T15:08:37;100998.56;;;15.51;100.00
45050;BME280;61798;48.048;-1.928;2023-04-07T15:10:44;100966.06;;;14.93;100.00
45050;BME280;61798;48.048;-1.928;2023-04-07T15:12:52;100951.16;;;15.22;100.00